createdAt,value
2017-09-27T00:00:10.769Z,13.47
2017-09-27T00:01:21.013Z,13.47
2017-09-27T00:02:31.268Z,13.45
2017-09-27T00:03:41.467Z,13.45
2017-09-27T00:04:51.718Z,13.54
2017-09-27T00:06:01.971Z,13.47
2017-09-27T00:07:12.230Z,13.46
2017-09-27T00:08:22.207Z,13.46
2017-09-27T00:09:32.704Z,13.43
2017-09-27T00:10:42.960Z,13.46
2017-09-27T00:11:53.209Z,13.46
2017-09-27T00:13:03.141Z,13.43
2017-09-27T00:14:13.083Z,13.47
2017-09-27T00:15:23.636Z,13.45
2017-09-27T00:16:33.888Z,13.47
2017-09-27T00:17:44.140Z,13.47
2017-09-27T00:18:54.617Z,13.43
2017-09-27T00:20:04.882Z,13.47
2017-09-27T00:21:15.116Z,13.45
2017-09-27T00:22:25.056Z,13.45
2017-09-27T00:23:34.984Z,13.42
2017-09-27T00:24:45.574Z,13.46
2017-09-27T00:25:55.502Z,13.4
2017-09-27T00:27:05.699Z,13.43
2017-09-27T00:28:15.945Z,13.46
2017-09-27T00:29:26.198Z,13.4
2017-09-27T00:30:36.466Z,13.45
2017-09-27T00:31:46.717Z,13.43
2017-09-27T00:32:57.221Z,13.46
2017-09-27T00:34:07.471Z,13.47
2017-09-27T00:35:17.416Z,13.5
2017-09-27T00:36:27.674Z,13.47
2017-09-27T00:37:38.018Z,13.5
2017-09-27T00:38:48.222Z,13.47
2017-09-27T00:39:58.147Z,13.47
2017-09-27T00:41:07.771Z,13.52
2017-09-27T00:42:17.698Z,13.46
2017-09-27T00:43:27.958Z,13.54
2017-09-27T00:44:38.138Z,13.5
2017-09-27T00:45:48.386Z,13.49
2017-09-27T00:46:58.666Z,13.45
2017-09-27T00:48:08.916Z,13.47
2017-09-27T00:49:18.848Z,13.49
2017-09-27T00:50:29.391Z,13.43
2017-09-27T00:51:39.324Z,13.42
2017-09-27T00:52:49.578Z,13.45
2017-09-27T00:53:59.829Z,13.45
2017-09-27T00:55:09.762Z,13.43
2017-09-27T00:56:20.274Z,13.43
2017-09-27T00:57:30.521Z,13.45
2017-09-27T00:58:40.462Z,13.45
2017-09-27T00:59:50.076Z,13.4
2017-09-27T01:01:00.049Z,13.45
2017-09-27T01:02:10.247Z,13.39
2017-09-27T01:03:20.499Z,13.45
2017-09-27T01:04:30.751Z,13.37
2017-09-27T01:05:41.002Z,13.33
2017-09-27T01:06:50.936Z,13.37
2017-09-27T01:08:01.435Z,13.42
2017-09-27T01:09:11.689Z,13.4
2017-09-27T01:10:21.619Z,13.42
2017-09-27T01:11:31.239Z,13.43
2017-09-27T01:12:40.863Z,13.49
2017-09-27T01:13:51.049Z,13.43
2017-09-27T01:15:01.305Z,13.45
2017-09-27T01:16:11.557Z,13.42
2017-09-27T01:17:21.814Z,13.42
2017-09-27T01:18:31.437Z,13.45
2017-09-27T01:19:41.950Z,13.39
2017-09-27T01:20:52.195Z,13.37
2017-09-27T01:22:02.128Z,13.31
2017-09-27T01:23:12.063Z,13.3
2017-09-27T01:24:22.330Z,13.3
2017-09-27T01:25:32.512Z,13.4
2017-09-27T01:26:42.771Z,13.33
2017-09-27T01:27:52.698Z,13.4
2017-09-27T01:29:02.628Z,13.39
2017-09-27T01:30:12.883Z,13.33
2017-09-27T01:31:22.750Z,13.36
2017-09-27T01:32:33.003Z,13.37
2017-09-27T01:33:43.250Z,13.33
2017-09-27T01:34:53.497Z,13.42
2017-09-27T01:36:03.743Z,13.33
2017-09-27T01:37:14.296Z,13.36
2017-09-27T01:38:24.548Z,13.42
2017-09-27T01:39:34.814Z,13.3
2017-09-27T01:40:45.072Z,13.39
2017-09-27T01:41:55.353Z,13.28
2017-09-27T01:43:05.534Z,13.39
2017-09-27T01:44:15.156Z,13.33
2017-09-27T01:45:25.407Z,13.33
2017-09-27T01:46:35.658Z,13.33
2017-09-27T01:47:45.919Z,13.4
2017-09-27T01:48:56.421Z,13.39
2017-09-27T01:50:06.358Z,13.28
2017-09-27T01:51:16.612Z,13.4
2017-09-27T01:52:26.867Z,13.36
2017-09-27T01:53:37.123Z,13.37
2017-09-27T01:54:47.616Z,13.33
2017-09-27T01:55:57.876Z,13.33
2017-09-27T01:57:07.812Z,13.31
2017-09-27T01:58:18.072Z,13.36
2017-09-27T01:59:28.316Z,13.27
2017-09-27T02:00:38.820Z,13.33
2017-09-27T02:01:49.067Z,13.39
2017-09-27T02:02:59.003Z,13.39
2017-09-27T02:04:09.259Z,13.39
2017-09-27T02:05:19.197Z,13.33
2017-09-27T02:06:29.382Z,13.37
2017-09-27T02:07:39.630Z,13.27
2017-09-27T02:08:49.561Z,13.46
2017-09-27T02:09:59.804Z,13.37
2017-09-27T02:11:10.095Z,13.33
2017-09-27T02:12:20.284Z,13.28
2017-09-27T02:13:30.535Z,13.36
2017-09-27T02:14:40.804Z,13.39
2017-09-27T02:15:50.740Z,13.39
2017-09-27T02:17:00.682Z,13.31
2017-09-27T02:18:11.234Z,13.36
2017-09-27T02:19:21.478Z,13.31
2017-09-27T02:20:31.725Z,13.37
2017-09-27T02:21:41.659Z,13.36
2017-09-27T02:22:51.910Z,13.27
2017-09-27T02:24:02.403Z,13.39
2017-09-27T02:25:12.661Z,13.37
2017-09-27T02:26:22.908Z,13.21
2017-09-27T02:27:33.151Z,13.27
2017-09-27T02:28:43.401Z,13.42
2017-09-27T02:29:53.595Z,13.33
2017-09-27T02:31:03.531Z,13.3
2017-09-27T02:32:13.775Z,13.39
2017-09-27T02:33:24.033Z,13.37
2017-09-27T02:34:34.293Z,13.31
2017-09-27T02:35:44.781Z,13.39
2017-09-27T02:36:55.026Z,13.33
2017-09-27T02:38:05.274Z,13.31
2017-09-27T02:39:15.245Z,13.3
2017-09-27T02:40:25.186Z,13.28
2017-09-27T02:41:35.380Z,13.26
2017-09-27T02:42:45.006Z,13.33
2017-09-27T02:43:55.251Z,13.31
2017-09-27T02:45:05.517Z,13.31
2017-09-27T02:46:15.455Z,13.23
2017-09-27T02:47:25.961Z,13.2
2017-09-27T02:48:36.254Z,13.2
2017-09-27T02:49:46.533Z,13.26
2017-09-27T02:50:56.787Z,13.24
2017-09-27T02:52:06.767Z,13.27
2017-09-27T02:53:17.273Z,13.19
2017-09-27T02:54:27.537Z,13.2
2017-09-27T02:55:37.799Z,13.2
2017-09-27T02:56:47.737Z,13.23
2017-09-27T02:57:57.987Z,13.3
2017-09-27T02:59:07.863Z,13.23
2017-09-27T03:00:17.802Z,13.36
2017-09-27T03:01:28.049Z,13.36
2017-09-27T03:02:38.295Z,13.28
2017-09-27T03:03:48.226Z,13.36
2017-09-27T03:04:58.412Z,13.28
2017-09-27T03:06:08.338Z,13.27
2017-09-27T03:07:18.268Z,13.3
2017-09-27T03:08:28.568Z,13.39
2017-09-27T03:09:38.829Z,13.3
2017-09-27T03:10:49.046Z,13.3
2017-09-27T03:11:58.975Z,13.21
2017-09-27T03:13:09.229Z,13.27
2017-09-27T03:14:19.478Z,13.3
2017-09-27T03:15:29.411Z,13.23
2017-09-27T03:16:39.955Z,13.3
2017-09-27T03:17:50.211Z,13.33
2017-09-27T03:19:00.154Z,13.24
2017-09-27T03:20:10.403Z,13.36
2017-09-27T03:21:20.340Z,13.21
2017-09-27T03:22:30.883Z,13.26
2017-09-27T03:23:40.510Z,13.31
2017-09-27T03:24:50.772Z,13.26
2017-09-27T03:26:00.708Z,13.33
2017-09-27T03:27:10.956Z,13.33
2017-09-27T03:28:21.138Z,13.3
2017-09-27T03:29:31.406Z,13.26
2017-09-27T03:30:41.658Z,13.31
2017-09-27T03:31:51.916Z,13.31
2017-09-27T03:33:01.541Z,13.37
2017-09-27T03:34:11.735Z,13.31
2017-09-27T03:35:21.971Z,13.42
2017-09-27T03:36:31.921Z,13.45
2017-09-27T03:37:42.180Z,13.4
2017-09-27T03:38:52.429Z,13.43
2017-09-27T03:40:02.930Z,13.28
2017-09-27T03:41:13.183Z,13.31
2017-09-27T03:42:23.431Z,13.37
2017-09-27T03:43:33.380Z,13.43
2017-09-27T03:44:43.640Z,13.33
2017-09-27T03:45:54.158Z,13.28
2017-09-27T03:47:04.084Z,13.39
2017-09-27T03:48:14.017Z,13.33
2017-09-27T03:49:24.264Z,13.33
2017-09-27T03:50:34.509Z,13.4
2017-09-27T03:51:44.694Z,13.36
2017-09-27T03:52:54.310Z,13.28
2017-09-27T03:54:04.555Z,13.36
2017-09-27T03:55:14.499Z,13.33
2017-09-27T03:56:24.429Z,13.36
2017-09-27T03:57:34.930Z,13.4
2017-09-27T03:58:45.177Z,13.3
2017-09-27T03:59:55.108Z,13.4
2017-09-27T04:01:05.368Z,13.28
2017-09-27T04:02:15.292Z,13.33
2017-09-27T04:03:25.847Z,13.28
2017-09-27T04:04:36.090Z,13.33
2017-09-27T04:05:46.344Z,13.26
2017-09-27T04:06:56.586Z,13.37
2017-09-27T04:08:06.829Z,13.33
2017-09-27T04:09:16.390Z,13.28
2017-09-27T04:10:26.656Z,13.24
2017-09-27T04:11:36.920Z,13.36
2017-09-27T04:12:47.182Z,13.28
2017-09-27T04:13:57.438Z,13.26
2017-09-27T04:15:07.619Z,13.28
2017-09-27T04:16:17.861Z,13.24
2017-09-27T04:17:27.797Z,13.21
2017-09-27T04:18:38.057Z,13.2
2017-09-27T04:19:47.985Z,13.28
2017-09-27T04:20:58.173Z,13.28
2017-09-27T04:22:08.113Z,13.19
2017-09-27T04:23:18.368Z,13.2
2017-09-27T04:24:28.315Z,13.19
2017-09-27T04:25:38.030Z,13.24
2017-09-27T04:26:48.219Z,13.21
2017-09-27T04:27:58.471Z,13.21
2017-09-27T04:29:08.421Z,13.21
2017-09-27T04:30:18.678Z,13.2
2017-09-27T04:31:28.931Z,13.26
2017-09-27T04:32:39.119Z,13.27
2017-09-27T04:33:49.373Z,13.17
2017-09-27T04:34:59.868Z,13.17
2017-09-27T04:36:09.822Z,13.28
2017-09-27T04:37:20.074Z,13.26
2017-09-27T04:38:30.265Z,13.26
2017-09-27T04:39:40.515Z,13.28
2017-09-27T04:40:50.452Z,13.19
2017-09-27T04:42:00.721Z,13.26
2017-09-27T04:43:10.985Z,13.19
2017-09-27T04:44:21.489Z,13.28
2017-09-27T04:45:31.740Z,13.28
2017-09-27T04:46:41.674Z,13.3
2017-09-27T04:47:51.925Z,13.27
2017-09-27T04:49:02.181Z,13.36
2017-09-27T04:50:12.843Z,13.2
2017-09-27T04:51:23.085Z,13.28
2017-09-27T04:52:33.343Z,13.28
2017-09-27T04:53:43.593Z,13.36
2017-09-27T04:54:53.542Z,13.36
2017-09-27T04:56:04.046Z,13.26
2017-09-27T04:57:13.983Z,13.33
2017-09-27T04:58:23.910Z,13.3
2017-09-27T04:59:34.188Z,13.28
2017-09-27T05:00:44.441Z,13.21
2017-09-27T05:01:54.643Z,13.3
2017-09-27T05:03:04.589Z,13.21
2017-09-27T05:04:14.843Z,13.19
2017-09-27T05:05:25.096Z,13.21
2017-09-27T05:06:35.346Z,13.21
2017-09-27T05:07:45.535Z,13.21
2017-09-27T05:08:55.791Z,13.17
2017-09-27T05:10:05.421Z,13.24
2017-09-27T05:11:15.667Z,13.2
2017-09-27T05:12:25.922Z,13.24
2017-09-27T05:13:36.448Z,13.17
2017-09-27T05:14:46.383Z,13.23
2017-09-27T05:15:56.638Z,13.28
2017-09-27T05:17:06.572Z,13.26
2017-09-27T05:18:16.872Z,13.21
2017-09-27T05:19:27.372Z,13.21
2017-09-27T05:20:37.635Z,13.24
2017-09-27T05:21:47.887Z,13.16
2017-09-27T05:22:58.136Z,13.27
2017-09-27T05:24:08.071Z,13.21
2017-09-27T05:25:18.592Z,13.3
2017-09-27T05:26:28.537Z,13.23
2017-09-27T05:27:38.168Z,13.21
2017-09-27T05:28:48.423Z,13.3
2017-09-27T05:29:58.350Z,13.31
2017-09-27T05:31:08.919Z,13.24
2017-09-27T05:32:18.938Z,13.19
2017-09-27T05:33:28.879Z,13.27
2017-09-27T05:34:39.144Z,13.26
2017-09-27T05:35:49.392Z,13.28
2017-09-27T05:36:59.903Z,13.19
2017-09-27T05:38:09.886Z,13.23
2017-09-27T05:39:19.842Z,13.27
2017-09-27T05:40:30.142Z,13.2
2017-09-27T05:41:40.410Z,13.21
2017-09-27T05:42:50.942Z,13.3
2017-09-27T05:44:01.216Z,13.26
2017-09-27T05:45:11.465Z,13.27
2017-09-27T05:46:21.410Z,13.28
2017-09-27T05:47:31.348Z,13.27
2017-09-27T05:48:41.845Z,13.37
2017-09-27T05:49:51.780Z,13.39
2017-09-27T05:51:02.033Z,13.36
2017-09-27T05:52:12.288Z,13.42
2017-09-27T05:53:22.220Z,13.36
2017-09-27T05:54:32.718Z,13.28
2017-09-27T05:55:42.973Z,13.31
2017-09-27T05:56:53.220Z,13.46
2017-09-27T05:58:03.157Z,13.43
2017-09-27T05:59:13.406Z,13.43
2017-09-27T06:00:23.909Z,13.46
2017-09-27T06:01:33.845Z,13.46
2017-09-27T06:02:44.101Z,13.45
2017-09-27T06:03:54.358Z,13.52
2017-09-27T06:05:04.313Z,13.54
2017-09-27T06:06:14.199Z,13.46
2017-09-27T06:07:24.152Z,13.5
2017-09-27T06:08:34.425Z,13.54
2017-09-27T06:09:44.362Z,13.52
2017-09-27T06:10:54.637Z,13.5
2017-09-27T06:12:05.155Z,13.47
2017-09-27T06:13:15.125Z,13.46
2017-09-27T06:14:25.067Z,13.46
2017-09-27T06:15:34.998Z,13.52
2017-09-27T06:16:45.255Z,13.54
2017-09-27T06:17:55.475Z,13.55
2017-09-27T06:19:05.738Z,13.55
2017-09-27T06:20:15.975Z,13.58
2017-09-27T06:21:25.927Z,13.61
2017-09-27T06:22:35.863Z,13.61
2017-09-27T06:23:46.050Z,13.61
2017-09-27T06:24:56.000Z,13.62
2017-09-27T06:26:06.275Z,13.58
2017-09-27T06:27:15.906Z,13.62
2017-09-27T06:28:25.842Z,13.64
2017-09-27T06:29:36.093Z,13.65
2017-09-27T06:30:46.400Z,13.65
2017-09-27T06:31:56.670Z,13.7
2017-09-27T06:33:06.638Z,13.62
2017-09-27T06:34:16.921Z,13.65
2017-09-27T06:35:27.466Z,13.68
2017-09-27T06:36:37.733Z,13.65
2017-09-27T06:37:47.866Z,13.76
2017-09-27T06:38:58.190Z,13.61
2017-09-27T06:40:08.148Z,13.68
2017-09-27T06:41:18.747Z,13.71
2017-09-27T06:42:29.017Z,13.76
2017-09-27T06:43:39.276Z,13.71
2017-09-27T06:44:49.231Z,13.71
2017-09-27T06:45:59.522Z,13.76
2017-09-27T06:47:09.717Z,13.75
2017-09-27T06:48:19.995Z,13.83
2017-09-27T06:49:29.946Z,13.73
2017-09-27T06:50:40.205Z,13.78
2017-09-27T06:51:50.502Z,13.75
2017-09-27T06:53:01.030Z,13.78
2017-09-27T06:54:11.302Z,13.76
2017-09-27T06:55:21.583Z,13.75
2017-09-27T06:56:31.903Z,13.73
2017-09-27T06:57:42.181Z,13.75
2017-09-27T06:58:52.707Z,13.76
2017-09-27T07:00:02.973Z,13.78
2017-09-27T07:01:12.907Z,13.78
2017-09-27T07:02:23.185Z,13.89
2017-09-27T07:03:33.450Z,13.91
2017-09-27T07:04:43.960Z,13.87
2017-09-27T07:05:54.229Z,13.87
2017-09-27T07:07:04.478Z,13.91
2017-09-27T07:08:14.753Z,13.93
2017-09-27T07:09:24.761Z,13.91
2017-09-27T07:10:34.986Z,14
2017-09-27T07:11:45.250Z,14
2017-09-27T07:12:54.887Z,14.03
2017-09-27T07:14:04.919Z,14.03
2017-09-27T07:15:14.902Z,13.94
2017-09-27T07:16:25.450Z,13.98
2017-09-27T07:17:35.719Z,14.01
2017-09-27T07:18:45.994Z,14.01
2017-09-27T07:19:55.662Z,14.04
2017-09-27T07:21:05.934Z,14.08
2017-09-27T07:22:16.465Z,14.05
2017-09-27T07:23:26.740Z,14.04
2017-09-27T07:24:36.989Z,14.07
2017-09-27T07:25:47.273Z,14.05
2017-09-27T07:26:57.538Z,14.12
2017-09-27T07:28:07.425Z,14.15
2017-09-27T07:29:17.695Z,14.2
2017-09-27T07:30:27.668Z,14.18
2017-09-27T07:31:37.919Z,14.2
2017-09-27T07:32:47.581Z,14.13
2017-09-27T07:33:58.104Z,14.25
2017-09-27T07:35:08.071Z,14.22
2017-09-27T07:36:18.012Z,14.25
2017-09-27T07:37:27.994Z,14.25
2017-09-27T07:38:37.634Z,14.37
2017-09-27T07:39:47.829Z,14.38
2017-09-27T07:40:57.772Z,14.3
2017-09-27T07:42:07.744Z,14.31
2017-09-27T07:43:18.025Z,14.28
2017-09-27T07:44:28.295Z,14.23
2017-09-27T07:45:38.490Z,14.31
2017-09-27T07:46:48.437Z,14.3
2017-09-27T07:47:58.397Z,14.37
2017-09-27T07:49:08.654Z,14.49
2017-09-27T07:50:18.909Z,14.49
2017-09-27T07:51:29.109Z,14.44
2017-09-27T07:52:39.059Z,14.44
2017-09-27T07:53:48.989Z,14.48
2017-09-27T07:54:59.248Z,14.49
2017-09-27T07:56:09.185Z,14.62
2017-09-27T07:57:19.708Z,14.59
2017-09-27T07:58:29.651Z,14.63
2017-09-27T07:59:39.925Z,14.66
2017-09-27T08:00:50.198Z,14.71
2017-09-27T08:02:00.470Z,14.74
2017-09-27T08:03:11.033Z,14.78
2017-09-27T08:04:21.325Z,14.81
2017-09-27T08:05:31.276Z,14.87
2017-09-27T08:06:41.529Z,14.82
2017-09-27T08:07:51.791Z,14.89
2017-09-27T08:09:02.005Z,14.97
2017-09-27T08:10:12.266Z,14.99
2017-09-27T08:11:22.551Z,14.9
2017-09-27T08:12:31.873Z,14.94
2017-09-27T08:13:42.136Z,14.87
2017-09-27T08:14:52.962Z,15.07
2017-09-27T08:16:02.919Z,14.97
2017-09-27T08:17:13.174Z,15
2017-09-27T08:18:23.458Z,15
2017-09-27T08:19:33.723Z,15
2017-09-27T08:20:43.604Z,15.04
2017-09-27T08:21:53.559Z,15.04
2017-09-27T08:23:03.817Z,15.04
2017-09-27T08:24:13.768Z,15.02
2017-09-27T08:25:23.703Z,15.08
2017-09-27T08:26:34.208Z,15.02
2017-09-27T08:27:44.152Z,14.93
2017-09-27T08:28:54.095Z,14.92
2017-09-27T08:30:04.367Z,15
2017-09-27T08:31:14.647Z,14.97
2017-09-27T08:32:24.855Z,14.96
2017-09-27T08:33:35.395Z,14.9
2017-09-27T08:34:45.657Z,14.99
2017-09-27T08:35:55.969Z,14.89
2017-09-27T08:37:06.306Z,14.9
2017-09-27T08:38:16.910Z,14.92
2017-09-27T08:39:27.201Z,14.89
2017-09-27T08:40:37.455Z,14.94
2017-09-27T08:41:47.715Z,14.92
2017-09-27T08:42:57.978Z,14.93
2017-09-27T08:44:08.169Z,14.94
2017-09-27T08:45:18.434Z,14.94
2017-09-27T08:46:28.689Z,14.97
2017-09-27T08:47:38.954Z,15.02
2017-09-27T08:48:48.918Z,15.04
2017-09-27T08:49:59.425Z,15.17
2017-09-27T08:51:09.682Z,15.15
2017-09-27T08:52:19.963Z,15.18
2017-09-27T08:53:30.259Z,15.23
2017-09-27T08:54:40.542Z,15.36
2017-09-27T08:55:50.461Z,15.3
2017-09-27T08:57:00.750Z,15.36
2017-09-27T08:58:10.699Z,15.41
2017-09-27T08:59:20.644Z,15.29
2017-09-27T09:00:30.923Z,15.47
2017-09-27T09:01:41.452Z,15.51
2017-09-27T09:02:51.714Z,15.41
2017-09-27T09:04:01.980Z,15.5
2017-09-27T09:05:11.934Z,15.5
2017-09-27T09:06:22.225Z,15.54
2017-09-27T09:07:32.425Z,15.54
2017-09-27T09:08:42.377Z,15.65
2017-09-27T09:09:52.660Z,15.66
2017-09-27T09:11:02.909Z,15.6
2017-09-27T09:12:13.175Z,15.66
2017-09-27T09:13:23.711Z,15.69
2017-09-27T09:14:33.983Z,15.73
2017-09-27T09:15:44.261Z,15.75
2017-09-27T09:16:54.520Z,15.8
2017-09-27T09:18:04.456Z,15.87
2017-09-27T09:19:14.661Z,15.85
2017-09-27T09:20:24.925Z,15.96
2017-09-27T09:21:35.191Z,15.91
2017-09-27T09:22:45.125Z,16.02
2017-09-27T09:23:55.380Z,16.13
2017-09-27T09:25:05.590Z,16.25
2017-09-27T09:26:15.559Z,16.25
2017-09-27T09:27:25.504Z,16.29
2017-09-27T09:28:35.454Z,16.26
2017-09-27T09:29:45.718Z,16.32
2017-09-27T09:30:56.219Z,16.34
2017-09-27T09:32:06.166Z,16.36
2017-09-27T09:33:16.436Z,16.44
2017-09-27T09:34:26.698Z,16.46
2017-09-27T09:35:36.959Z,16.37
2017-09-27T09:36:47.193Z,16.37
2017-09-27T09:37:57.142Z,16.28
2017-09-27T09:39:07.392Z,16.41
2017-09-27T09:40:17.671Z,16.41
2017-09-27T09:41:27.924Z,16.29
2017-09-27T09:42:38.437Z,16.18
2017-09-27T09:43:48.737Z,16.21
2017-09-27T09:44:58.987Z,16.16
2017-09-27T09:46:09.299Z,16.22
2017-09-27T09:47:19.569Z,16.34
2017-09-27T09:48:29.794Z,16.37
2017-09-27T09:49:40.049Z,16.29
2017-09-27T09:50:50.314Z,16.41
2017-09-27T09:52:00.622Z,16.39
2017-09-27T09:53:11.003Z,16.44
2017-09-27T09:54:21.523Z,16.44
2017-09-27T09:55:31.797Z,16.4
2017-09-27T09:56:42.060Z,16.49
2017-09-27T09:57:52.401Z,16.44
2017-09-27T09:59:02.725Z,16.57
2017-09-27T10:00:13.305Z,16.54
2017-09-27T10:01:23.577Z,16.65
2017-09-27T10:02:33.835Z,16.76
2017-09-27T10:03:44.124Z,16.91
2017-09-27T10:04:54.078Z,16.95
2017-09-27T10:06:04.601Z,17.09
2017-09-27T10:07:14.565Z,17.16
2017-09-27T10:08:24.518Z,17.32
2017-09-27T10:09:34.789Z,17.49
2017-09-27T10:10:44.448Z,17.56
2017-09-27T10:11:55.007Z,17.6
2017-09-27T10:13:04.970Z,17.71
2017-09-27T10:14:15.264Z,17.68
2017-09-27T10:15:25.555Z,17.79
2017-09-27T10:16:35.822Z,17.93
2017-09-27T10:17:46.007Z,18.03
2017-09-27T10:18:56.298Z,18.15
2017-09-27T10:20:06.598Z,18.19
2017-09-27T10:21:16.864Z,18.12
2017-09-27T10:22:26.823Z,18.23
2017-09-27T10:23:36.699Z,18.11
2017-09-27T10:24:46.725Z,18.27
2017-09-27T10:25:57.011Z,18.34
2017-09-27T10:27:07.270Z,18.67
2017-09-27T10:28:17.164Z,18.78
2017-09-27T10:29:27.682Z,18.86
2017-09-27T10:30:37.957Z,18.89
2017-09-27T10:31:47.917Z,19.07
2017-09-27T10:32:58.197Z,19.29
2017-09-27T10:34:08.500Z,19.38
2017-09-27T10:35:19.042Z,19.32
2017-09-27T10:36:29.357Z,19.27
2017-09-27T10:37:39.648Z,19.15
2017-09-27T10:38:50.201Z,19.41
2017-09-27T10:40:00.174Z,19.41
2017-09-27T10:41:10.398Z,19.55
2017-09-27T10:42:20.721Z,19.62
2017-09-27T10:43:30.988Z,19.79
2017-09-27T10:44:41.263Z,19.84
2017-09-27T10:45:51.525Z,19.84
2017-09-27T10:47:01.402Z,20.02
2017-09-27T10:48:11.682Z,20.26
2017-09-27T10:49:21.652Z,20.42
2017-09-27T10:50:31.618Z,20.68
2017-09-27T10:51:41.930Z,20.56
2017-09-27T10:52:52.463Z,20.68
2017-09-27T10:54:02.413Z,20.64
2017-09-27T10:55:12.681Z,20.59
2017-09-27T10:56:22.656Z,20.27
2017-09-27T10:57:32.611Z,20.32
2017-09-27T10:58:42.868Z,20.3
2017-09-27T10:59:53.161Z,20.52
2017-09-27T11:01:03.481Z,20.63
2017-09-27T11:02:13.783Z,20.6
2017-09-27T11:03:24.085Z,20.68
2017-09-27T11:04:34.003Z,20.82
2017-09-27T11:05:44.370Z,20.88
2017-09-27T11:06:54.673Z,21.17
2017-09-27T11:08:04.649Z,21.1
2017-09-27T11:09:14.950Z,21.01
2017-09-27T11:10:25.165Z,21.11
2017-09-27T11:11:35.460Z,21.28
2017-09-27T11:12:45.770Z,21.4
2017-09-27T11:13:56.053Z,21.22
2017-09-27T11:15:06.370Z,21.13
2017-09-27T11:16:16.624Z,21.13
2017-09-27T11:17:27.128Z,21.03
2017-09-27T11:18:37.393Z,21.13
2017-09-27T11:19:47.374Z,21.01
2017-09-27T11:20:57.657Z,21.04
2017-09-27T11:22:08.202Z,21.25
2017-09-27T11:23:17.835Z,21.38
2017-09-27T11:24:28.082Z,21.29
2017-09-27T11:25:38.348Z,21.32
2017-09-27T11:26:48.297Z,21.51
2017-09-27T11:27:58.821Z,21.56
2017-09-27T11:29:09.090Z,21.7
2017-09-27T11:30:19.044Z,22
2017-09-27T11:31:28.989Z,22.1
2017-09-27T11:32:39.267Z,22.12
2017-09-27T11:33:49.813Z,22.31
2017-09-27T11:34:59.767Z,22.12
2017-09-27T11:36:10.281Z,22.14
2017-09-27T11:37:20.253Z,22
2017-09-27T11:38:30.539Z,21.91
2017-09-27T11:39:41.118Z,21.91
2017-09-27T11:40:51.386Z,22
2017-09-27T11:42:01.336Z,21.91
2017-09-27T11:43:11.604Z,21.59
2017-09-27T11:44:21.899Z,21.35
2017-09-27T11:45:32.470Z,21.26
2017-09-27T11:46:42.738Z,21.37
2017-09-27T11:47:52.997Z,21.48
2017-09-27T11:49:02.948Z,21.59
2017-09-27T11:50:12.918Z,21.8
2017-09-27T11:51:23.443Z,22.14
2017-09-27T11:52:33.401Z,22.23
2017-09-27T11:53:43.672Z,22.33
2017-09-27T11:54:53.942Z,22.36
2017-09-27T11:56:04.209Z,22.14
2017-09-27T11:57:14.718Z,21.99
2017-09-27T11:58:25.010Z,21.74
2017-09-27T11:59:35.559Z,21.91
2017-09-27T12:00:45.846Z,22.14
2017-09-27T12:01:56.111Z,22.1
2017-09-27T12:03:06.341Z,22
2017-09-27T12:04:16.326Z,21.77
2017-09-27T12:05:26.588Z,21.7
2017-09-27T12:06:36.914Z,21.99
2017-09-27T12:07:46.879Z,22.14
2017-09-27T12:08:57.385Z,22.52
2017-09-27T12:10:07.658Z,22.41
2017-09-27T12:11:17.943Z,22.55
2017-09-27T12:12:28.212Z,22.59
2017-09-27T12:13:38.726Z,22.67
2017-09-27T12:14:49.203Z,22.76
2017-09-27T12:15:59.516Z,22.63
2017-09-27T12:17:09.820Z,22.34
2017-09-27T12:18:20.121Z,22.31
2017-09-27T12:19:30.075Z,22.34
2017-09-27T12:20:40.582Z,22.18
2017-09-27T12:21:50.858Z,22.33
2017-09-27T12:23:01.136Z,22.33
2017-09-27T12:24:11.409Z,22.28
2017-09-27T12:25:21.679Z,22.12
2017-09-27T12:26:31.900Z,22.16
2017-09-27T12:27:42.209Z,21.89
2017-09-27T12:28:51.858Z,21.66
2017-09-27T12:30:02.132Z,21.45
2017-09-27T12:31:12.407Z,21.43
2017-09-27T12:32:22.926Z,21.35
2017-09-27T12:33:33.211Z,21.08
2017-09-27T12:34:43.162Z,21.15
2017-09-27T12:35:53.115Z,21.1
2017-09-27T12:37:03.073Z,21.04
2017-09-27T12:38:13.281Z,21
2017-09-27T12:39:23.558Z,20.78
2017-09-27T12:40:33.816Z,20.82
2017-09-27T12:41:44.118Z,20.74
2017-09-27T12:42:54.065Z,20.78
2017-09-27T12:44:04.578Z,20.78
2017-09-27T12:45:14.863Z,20.64
2017-09-27T12:46:24.810Z,20.66
2017-09-27T12:47:34.767Z,20.48
2017-09-27T12:48:45.038Z,20.44
2017-09-27T12:49:55.626Z,20.44
2017-09-27T12:51:05.895Z,20.33
2017-09-27T12:52:15.868Z,20.52
2017-09-27T12:53:25.837Z,20.4
2017-09-27T12:54:36.108Z,20.49
2017-09-27T12:55:46.305Z,20.32
2017-09-27T12:56:56.577Z,20.4
2017-09-27T12:58:06.532Z,20.22
2017-09-27T12:59:16.478Z,20.17
2017-09-27T13:00:26.765Z,20.11
2017-09-27T13:01:37.270Z,20.12
2017-09-27T13:02:47.539Z,20.03
2017-09-27T13:03:57.168Z,20.04
2017-09-27T13:05:07.442Z,20.12
2017-09-27T13:06:17.455Z,20.11
2017-09-27T13:07:27.968Z,20.12
2017-09-27T13:08:38.226Z,20.11
2017-09-27T13:09:48.180Z,20.15
2017-09-27T13:10:58.161Z,20.11
2017-09-27T13:12:08.146Z,20.19
2017-09-27T13:13:18.345Z,20.19
2017-09-27T13:14:28.597Z,20.1
2017-09-27T13:15:38.560Z,20.1
2017-09-27T13:16:48.513Z,20.08
2017-09-27T13:17:58.781Z,20.17
2017-09-27T13:19:09.537Z,20.19
2017-09-27T13:20:19.811Z,20.34
2017-09-27T13:21:30.084Z,20.42
2017-09-27T13:22:40.363Z,20.49
2017-09-27T13:23:50.629Z,20.5
2017-09-27T13:25:01.198Z,20.34
2017-09-27T13:26:11.484Z,20.22
2017-09-27T13:27:21.758Z,20.12
2017-09-27T13:28:31.716Z,19.9
2017-09-27T13:29:41.671Z,20.04
2017-09-27T13:30:51.960Z,19.97
2017-09-27T13:32:02.230Z,19.89
2017-09-27T13:33:12.514Z,19.87
2017-09-27T13:34:22.463Z,19.75
2017-09-27T13:35:32.418Z,19.87
2017-09-27T13:36:42.931Z,19.79
2017-09-27T13:37:53.194Z,19.72
2017-09-27T13:39:03.472Z,19.72
2017-09-27T13:40:13.743Z,19.72
2017-09-27T13:41:23.705Z,19.81
2017-09-27T13:42:34.260Z,19.87
2017-09-27T13:43:44.225Z,19.85
2017-09-27T13:44:54.483Z,19.97
2017-09-27T13:46:04.737Z,19.97
2017-09-27T13:47:15.009Z,19.97
2017-09-27T13:48:25.518Z,20.11
2017-09-27T13:49:35.782Z,20.12
2017-09-27T13:50:46.083Z,20.1
2017-09-27T13:51:56.047Z,20.24
2017-09-27T13:53:05.986Z,20.11
2017-09-27T13:54:16.525Z,19.99
2017-09-27T13:55:26.494Z,19.96
2017-09-27T13:56:36.777Z,20.03
2017-09-27T13:57:46.730Z,19.94
2017-09-27T13:58:56.989Z,19.92
2017-09-27T14:00:07.518Z,19.99
2017-09-27T14:01:17.457Z,20.03
2017-09-27T14:02:27.727Z,20.19
2017-09-27T14:03:37.684Z,20.11
2017-09-27T14:04:47.647Z,20.29
2017-09-27T14:05:58.160Z,20.49
2017-09-27T14:07:08.144Z,20.4
2017-09-27T14:08:18.107Z,20.53
2017-09-27T14:09:28.377Z,20.5
2017-09-27T14:10:38.661Z,20.68
2017-09-27T14:11:49.245Z,20.63
2017-09-27T14:12:59.513Z,20.63
2017-09-27T14:14:09.810Z,20.56
2017-09-27T14:15:20.066Z,20.56
2017-09-27T14:16:30.336Z,20.52
2017-09-27T14:17:40.538Z,20.6
2017-09-27T14:18:50.826Z,20.73
2017-09-27T14:20:01.090Z,20.55
2017-09-27T14:21:11.356Z,20.67
2017-09-27T14:22:21.622Z,20.6
2017-09-27T14:23:32.139Z,20.66
2017-09-27T14:24:42.427Z,20.56
2017-09-27T14:25:52.701Z,20.48
2017-09-27T14:27:02.984Z,20.64
2017-09-27T14:28:13.267Z,20.67
2017-09-27T14:29:23.852Z,20.6
2017-09-27T14:30:33.802Z,20.48
2017-09-27T14:31:43.441Z,20.29
2017-09-27T14:32:53.715Z,20.32
2017-09-27T14:34:03.981Z,20.22
2017-09-27T14:35:14.191Z,20.12
2017-09-27T14:36:24.448Z,20.12
2017-09-27T14:37:34.715Z,20.12
2017-09-27T14:38:44.660Z,20.14
2017-09-27T14:39:54.944Z,20.11
2017-09-27T14:41:04.829Z,20.07
2017-09-27T14:42:15.112Z,20.08
2017-09-27T14:43:25.379Z,19.84
2017-09-27T14:44:35.374Z,19.93
2017-09-27T14:45:45.696Z,19.93
2017-09-27T14:46:55.905Z,19.84
2017-09-27T14:48:06.170Z,19.87
2017-09-27T14:49:16.453Z,19.89
2017-09-27T14:50:26.722Z,19.7
2017-09-27T14:51:36.686Z,19.7
2017-09-27T14:52:47.201Z,19.6
2017-09-27T14:53:57.462Z,19.56
2017-09-27T14:55:07.729Z,19.64
2017-09-27T14:56:17.989Z,19.67
2017-09-27T14:57:28.251Z,19.59
2017-09-27T14:58:38.788Z,19.62
2017-09-27T14:59:49.072Z,19.56
2017-09-27T15:00:59.330Z,19.59
2017-09-27T15:02:09.621Z,19.53
2017-09-27T15:03:19.995Z,19.57
2017-09-27T15:04:30.189Z,19.49
2017-09-27T15:05:40.451Z,19.38
2017-09-27T15:06:50.715Z,19.34
2017-09-27T15:08:00.985Z,19.27